sensor_id;sensor_type;location;lat;lon;timestamp;pressure;altitude;pressure_sealevel;temperature;humidity
83815;BME280;73829;53.826;-3.034;2023-11-21T00:02:31;101752.95;;;19.21;56.26
83815;BME280;73829;53.826;-3.034;2023-11-21T00:05:02;101746.13;;;19.20;56.27
83815;BME280;73829;53.826;-3.034;2023-11-21T00:07:33;101753.56;;;19.19;56.28
83815;BME280;73829;53.826;-3.034;2023-11-21T00:10:05;101746.73;;;19.17;56.30
83815;BME280;73829;53.826;-3.034;2023-11-21T00:12:36;101756.46;;;19.16;56.13
83815;BME280;73829;53.826;-3.034;2023-11-21T00:15:10;101765.70;;;19.14;56.24
83815;BME280;73829;53.826;-3.034;2023-11-21T00:17:41;101773.17;;;19.13;56.21
83815;BME280;73829;53.826;-3.034;2023-11-21T00:20:13;101779.22;;;19.11;56.22
83815;BME280;73829;53.826;-3.034;2023-11-21T00:22:44;101783.66;;;19.10;56.28
83815;BME280;73829;53.826;-3.034;2023-11-21T00:25:16;101791.65;;;19.09;56.27
83815;BME280;73829;53.826;-3.034;2023-11-21T00:27:47;101797.34;;;19.07;56.26
83815;BME280;73829;53.826;-3.034;2023-11-21T00:30:18;101804.23;;;19.06;56.31
83815;BME280;73829;53.826;-3.034;2023-11-21T00:32:51;101807.95;;;19.06;56.30
83815;BME280;73829;53.826;-3.034;2023-11-21T00:35:22;101816.69;;;19.09;56.20
83815;BME280;73829;53.826;-3.034;2023-11-21T00:37:54;101822.30;;;19.10;56.24
83815;BME280;73829;53.826;-3.034;2023-11-21T00:40:25;101829.69;;;19.10;56.17
83815;BME280;73829;53.826;-3.034;2023-11-21T00:42:56;101831.80;;;19.10;56.23
83815;BME280;73829;53.826;-3.034;2023-11-21T00:45:27;101828.64;;;19.10;56.18
83815;BME280;73829;53.826;-3.034;2023-11-21T00:47:58;101830.98;;;19.09;56.13
83815;BME280;73829;53.826;-3.034;2023-11-21T00:50:29;101831.70;;;19.08;56.13
83815;BME280;73829;53.826;-3.034;2023-11-21T00:53:00;101837.92;;;19.07;55.99
83815;BME280;73829;53.826;-3.034;2023-11-21T00:55:31;101846.27;;;19.05;56.00
83815;BME280;73829;53.826;-3.034;2023-11-21T00:58:02;101852.48;;;19.04;56.16
83815;BME280;73829;53.826;-3.034;2023-11-21T01:00:34;101857.98;;;19.02;56.16
83815;BME280;73829;53.826;-3.034;2023-11-21T01:03:05;101856.79;;;19.01;56.00
83815;BME280;73829;53.826;-3.034;2023-11-21T01:05:37;101853.68;;;18.99;56.14
83815;BME280;73829;53.826;-3.034;2023-11-21T01:08:08;101851.09;;;18.97;56.06
83815;BME280;73829;53.826;-3.034;2023-11-21T01:10:40;101852.18;;;18.96;56.22
83815;BME280;73829;53.826;-3.034;2023-11-21T01:13:11;101857.34;;;18.95;56.08
83815;BME280;73829;53.826;-3.034;2023-11-21T01:15:41;101860.91;;;18.93;56.20
83815;BME280;73829;53.826;-3.034;2023-11-21T01:18:13;101858.15;;;18.91;56.20
83815;BME280;73829;53.826;-3.034;2023-11-21T01:20:43;101862.05;;;18.90;56.15
83815;BME280;73829;53.826;-3.034;2023-11-21T01:23:16;101867.89;;;18.89;56.22
83815;BME280;73829;53.826;-3.034;2023-11-21T01:25:47;101863.65;;;18.90;56.04
83815;BME280;73829;53.826;-3.034;2023-11-21T01:28:18;101865.35;;;18.92;56.18
83815;BME280;73829;53.826;-3.034;2023-11-21T01:30:49;101864.08;;;18.93;56.12
83815;BME280;73829;53.826;-3.034;2023-11-21T01:33:20;101861.08;;;18.93;56.01
83815;BME280;73829;53.826;-3.034;2023-11-21T01:35:51;101859.84;;;18.93;56.11
83815;BME280;73829;53.826;-3.034;2023-11-21T01:38:24;101860.02;;;18.93;56.00
83815;BME280;73829;53.826;-3.034;2023-11-21T01:40:55;101868.15;;;18.93;55.99
83815;BME280;73829;53.826;-3.034;2023-11-21T01:43:26;101869.43;;;18.91;56.07
83815;BME280;73829;53.826;-3.034;2023-11-21T01:45:57;101880.05;;;18.90;55.97
83815;BME280;73829;53.826;-3.034;2023-11-21T01:48:29;101883.77;;;18.89;56.11
83815;BME280;73829;53.826;-3.034;2023-11-21T01:51:00;101885.23;;;18.88;56.03
83815;BME280;73829;53.826;-3.034;2023-11-21T01:53:31;101889.68;;;18.86;56.12
83815;BME280;73829;53.826;-3.034;2023-11-21T01:56:03;101897.66;;;18.85;56.02
83815;BME280;73829;53.826;-3.034;2023-11-21T01:58:34;101902.10;;;18.84;56.02
83815;BME280;73829;53.826;-3.034;2023-11-21T02:01:05;101902.32;;;18.82;56.11
83815;BME280;73829;53.826;-3.034;2023-11-21T02:03:36;101909.24;;;18.81;56.08
83815;BME280;73829;53.826;-3.034;2023-11-21T02:06:09;101908.73;;;18.80;56.22
83815;BME280;73829;53.826;-3.034;2023-11-21T02:08:40;101908.80;;;18.78;56.20
83815;BME280;73829;53.826;-3.034;2023-11-21T02:11:13;101910.05;;;18.77;56.11
83815;BME280;73829;53.826;-3.034;2023-11-21T02:13:45;101907.47;;;18.75;56.19
83815;BME280;73829;53.826;-3.034;2023-11-21T02:16:16;101909.26;;;18.74;56.24
83815;BME280;73829;53.826;-3.034;2023-11-21T02:18:48;101923.04;;;18.73;56.13
83815;BME280;73829;53.826;-3.034;2023-11-21T02:21:19;101932.66;;;18.75;56.13
83815;BME280;73829;53.826;-3.034;2023-11-21T02:23:50;101945.84;;;18.77;55.99
83815;BME280;73829;53.826;-3.034;2023-11-21T02:26:21;101948.81;;;18.78;56.07
83815;BME280;73829;53.826;-3.034;2023-11-21T02:28:52;101950.21;;;18.78;56.06
83815;BME280;73829;53.826;-3.034;2023-11-21T02:31:24;101951.95;;;18.79;56.12
83815;BME280;73829;53.826;-3.034;2023-11-21T02:33:55;101954.25;;;18.79;56.04
83815;BME280;73829;53.826;-3.034;2023-11-21T02:36:26;101956.40;;;18.78;55.99
83815;BME280;73829;53.826;-3.034;2023-11-21T02:38:57;101951.83;;;18.77;55.99
83815;BME280;73829;53.826;-3.034;2023-11-21T02:41:28;101958.20;;;18.76;56.05
83815;BME280;73829;53.826;-3.034;2023-11-21T02:43:59;101961.95;;;18.75;55.94
83815;BME280;73829;53.826;-3.034;2023-11-21T02:46:31;101972.38;;;18.73;56.02
83815;BME280;73829;53.826;-3.034;2023-11-21T02:49:03;101974.70;;;18.72;56.19
83815;BME280;73829;53.826;-3.034;2023-11-21T02:51:35;101977.36;;;18.71;56.01
83815;BME280;73829;53.826;-3.034;2023-11-21T02:54:07;101989.39;;;18.69;56.11
83815;BME280;73829;53.826;-3.034;2023-11-21T02:56:38;102002.13;;;18.68;56.12
83815;BME280;73829;53.826;-3.034;2023-11-21T02:59:10;102007.95;;;18.67;55.94
83815;BME280;73829;53.826;-3.034;2023-11-21T03:01:41;102013.83;;;18.66;56.10
83815;BME280;73829;53.826;-3.034;2023-11-21T03:04:12;102022.49;;;18.64;56.10
83815;BME280;73829;53.826;-3.034;2023-11-21T03:06:47;102022.70;;;18.63;56.11
83815;BME280;73829;53.826;-3.034;2023-11-21T03:09:18;102023.08;;;18.62;56.13
83815;BME280;73829;53.826;-3.034;2023-11-21T03:11:49;102028.39;;;18.61;56.16
83815;BME280;73829;53.826;-3.034;2023-11-21T03:14:20;102024.71;;;18.60;56.04
83815;BME280;73829;53.826;-3.034;2023-11-21T03:16:50;102030.23;;;18.59;56.20
83815;BME280;73829;53.826;-3.034;2023-11-21T03:19:21;102025.84;;;18.58;56.09
83815;BME280;73829;53.826;-3.034;2023-11-21T03:21:52;102023.15;;;18.59;56.14
83815;BME280;73829;53.826;-3.034;2023-11-21T03:24:23;102023.45;;;18.61;56.00
83815;BME280;73829;53.826;-3.034;2023-11-21T03:26:56;102027.98;;;18.63;56.06
83815;BME280;73829;53.826;-3.034;2023-11-21T03:29:27;102031.85;;;18.64;55.90
83815;BME280;73829;53.826;-3.034;2023-11-21T03:31:58;102032.55;;;18.64;56.03
83815;BME280;73829;53.826;-3.034;2023-11-21T03:34:29;102032.38;;;18.63;55.90
83815;BME280;73829;53.826;-3.034;2023-11-21T03:37:00;102038.02;;;18.63;55.91
83815;BME280;73829;53.826;-3.034;2023-11-21T03:39:31;102041.04;;;18.63;55.92
83815;BME280;73829;53.826;-3.034;2023-11-21T03:42:02;102042.48;;;18.62;55.93
83815;BME280;73829;53.826;-3.034;2023-11-21T03:44:34;102044.61;;;18.60;55.98
83815;BME280;73829;53.826;-3.034;2023-11-21T03:47:05;102058.55;;;18.60;55.97
83815;BME280;73829;53.826;-3.034;2023-11-21T03:49:36;102064.08;;;18.58;55.84
83815;BME280;73829;53.826;-3.034;2023-11-21T03:52:07;102067.98;;;18.57;55.90
83815;BME280;73829;53.826;-3.034;2023-11-21T03:54:38;102082.29;;;18.55;56.05
83815;BME280;73829;53.826;-3.034;2023-11-21T03:57:09;102090.42;;;18.54;55.93
83815;BME280;73829;53.826;-3.034;2023-11-21T03:59:43;102099.27;;;18.53;55.88
83815;BME280;73829;53.826;-3.034;2023-11-21T04:02:14;102106.90;;;18.51;56.05
83815;BME280;73829;53.826;-3.034;2023-11-21T04:04:43;102105.32;;;18.51;55.86
83815;BME280;73829;53.826;-3.034;2023-11-21T04:07:14;102108.84;;;18.50;55.97
83815;BME280;73829;53.826;-3.034;2023-11-21T04:09:43;102110.84;;;18.48;56.02
83815;BME280;73829;53.826;-3.034;2023-11-21T04:12:14;102117.00;;;18.49;56.00
83815;BME280;73829;53.826;-3.034;2023-11-21T04:14:45;102117.58;;;18.46;56.02
83815;BME280;73829;53.826;-3.034;2023-11-21T04:17:19;102117.45;;;18.45;55.95
83815;BME280;73829;53.826;-3.034;2023-11-21T04:19:50;102120.84;;;18.43;56.07
83815;BME280;73829;53.826;-3.034;2023-11-21T04:22:21;102117.17;;;18.42;56.01
83815;BME280;73829;53.826;-3.034;2023-11-21T04:24:52;102118.77;;;18.41;56.02
83815;BME280;73829;53.826;-3.034;2023-11-21T04:27:24;102119.79;;;18.42;55.92
83815;BME280;73829;53.826;-3.034;2023-11-21T04:29:55;102122.38;;;18.45;55.91
83815;BME280;73829;53.826;-3.034;2023-11-21T04:32:26;102125.88;;;18.46;55.90
83815;BME280;73829;53.826;-3.034;2023-11-21T04:34:57;102127.27;;;18.46;55.93
83815;BME280;73829;53.826;-3.034;2023-11-21T04:37:28;102135.52;;;18.47;55.96
83815;BME280;73829;53.826;-3.034;2023-11-21T04:39:59;102138.52;;;18.47;55.98
83815;BME280;73829;53.826;-3.034;2023-11-21T04:42:30;102146.12;;;18.47;55.88
83815;BME280;73829;53.826;-3.034;2023-11-21T04:45:01;102151.77;;;18.46;55.81
83815;BME280;73829;53.826;-3.034;2023-11-21T04:47:38;102155.84;;;18.45;55.93
83815;BME280;73829;53.826;-3.034;2023-11-21T04:50:10;102160.44;;;18.45;55.78
83815;BME280;73829;53.826;-3.034;2023-11-21T04:52:41;102158.52;;;18.44;55.87
83815;BME280;73829;53.826;-3.034;2023-11-21T04:55:12;102159.27;;;18.43;55.73
83815;BME280;73829;53.826;-3.034;2023-11-21T04:57:43;102162.64;;;18.41;55.96
83815;BME280;73829;53.826;-3.034;2023-11-21T05:00:16;102166.36;;;18.40;55.93
83815;BME280;73829;53.826;-3.034;2023-11-21T05:02:47;102167.45;;;18.39;55.90
83815;BME280;73829;53.826;-3.034;2023-11-21T05:05:19;102165.89;;;18.38;55.86
83815;BME280;73829;53.826;-3.034;2023-11-21T05:07:50;102175.41;;;18.37;55.88
83815;BME280;73829;53.826;-3.034;2023-11-21T05:10:22;102173.33;;;18.37;55.94
83815;BME280;73829;53.826;-3.034;2023-11-21T05:12:54;102174.59;;;18.36;55.87
83815;BME280;73829;53.826;-3.034;2023-11-21T05:15:25;102186.96;;;18.33;55.87
83815;BME280;73829;53.826;-3.034;2023-11-21T05:17:57;102194.73;;;18.32;55.91
83815;BME280;73829;53.826;-3.034;2023-11-21T05:20:29;102200.21;;;18.31;55.94
83815;BME280;73829;53.826;-3.034;2023-11-21T05:23:00;102202.17;;;18.30;55.92
83815;BME280;73829;53.826;-3.034;2023-11-21T05:25:31;102206.43;;;18.29;55.97
83815;BME280;73829;53.826;-3.034;2023-11-21T05:28:03;102209.79;;;18.29;55.92
83815;BME280;73829;53.826;-3.034;2023-11-21T05:30:34;102217.04;;;18.27;55.87
83815;BME280;73829;53.826;-3.034;2023-11-21T05:33:05;102224.45;;;18.27;56.11
83815;BME280;73829;53.826;-3.034;2023-11-21T05:35:36;102225.66;;;18.28;55.87
83815;BME280;73829;53.826;-3.034;2023-11-21T05:38:07;102231.58;;;18.31;55.87
83815;BME280;73829;53.826;-3.034;2023-11-21T05:40:38;102241.58;;;18.33;55.93
83815;BME280;73829;53.826;-3.034;2023-11-21T05:43:09;102240.33;;;18.34;55.81
83815;BME280;73829;53.826;-3.034;2023-11-21T05:45:41;102238.57;;;18.34;55.73
83815;BME280;73829;53.826;-3.034;2023-11-21T05:48:12;102245.61;;;18.34;55.68
83815;BME280;73829;53.826;-3.034;2023-11-21T05:50:43;102248.78;;;18.35;55.71
83815;BME280;73829;53.826;-3.034;2023-11-21T05:53:14;102255.15;;;18.33;55.63
83815;BME280;73829;53.826;-3.034;2023-11-21T05:55:46;102259.92;;;18.32;55.70
83815;BME280;73829;53.826;-3.034;2023-11-21T05:58:17;102264.16;;;18.32;55.65
83815;BME280;73829;53.826;-3.034;2023-11-21T06:00:48;102268.06;;;18.30;55.73
83815;BME280;73829;53.826;-3.034;2023-11-21T06:03:19;102274.80;;;18.29;55.72
83815;BME280;73829;53.826;-3.034;2023-11-21T06:05:50;102280.80;;;18.28;55.73
83815;BME280;73829;53.826;-3.034;2023-11-21T06:08:21;102283.64;;;18.27;55.85
83815;BME280;73829;53.826;-3.034;2023-11-21T06:10:52;102282.26;;;18.26;55.78
83815;BME280;73829;53.826;-3.034;2023-11-21T06:13:23;102282.46;;;18.24;55.71
83815;BME280;73829;53.826;-3.034;2023-11-21T06:15:54;102281.26;;;18.23;55.76
83815;BME280;73829;53.826;-3.034;2023-11-21T06:18:25;102283.05;;;18.22;55.87
83815;BME280;73829;53.826;-3.034;2023-11-21T06:20:56;102282.88;;;18.21;55.80
83815;BME280;73829;53.826;-3.034;2023-11-21T06:23:28;102290.48;;;18.20;55.83
83815;BME280;73829;53.826;-3.034;2023-11-21T06:25:59;102295.27;;;18.18;55.95
83815;BME280;73829;53.826;-3.034;2023-11-21T06:28:30;102297.92;;;18.17;55.90
83815;BME280;73829;53.826;-3.034;2023-11-21T06:31:01;102301.64;;;18.17;55.90
83815;BME280;73829;53.826;-3.034;2023-11-21T06:33:34;102307.48;;;18.16;56.03
83815;BME280;73829;53.826;-3.034;2023-11-21T06:36:06;102312.26;;;18.14;55.92
83815;BME280;73829;53.826;-3.034;2023-11-21T06:38:37;102315.64;;;18.13;56.02
83815;BME280;73829;53.826;-3.034;2023-11-21T06:41:07;102318.81;;;18.13;55.87
83815;BME280;73829;53.826;-3.034;2023-11-21T06:43:38;102317.18;;;18.15;56.03
83815;BME280;73829;53.826;-3.034;2023-11-21T06:46:07;102318.38;;;18.17;56.04
83815;BME280;73829;53.826;-3.034;2023-11-21T06:48:38;102324.66;;;18.20;55.86
83815;BME280;73829;53.826;-3.034;2023-11-21T06:51:09;102331.38;;;18.19;55.80
83815;BME280;73829;53.826;-3.034;2023-11-21T06:53:40;102337.35;;;18.19;55.95
83815;BME280;73829;53.826;-3.034;2023-11-21T06:56:16;102347.21;;;18.19;55.83
83815;BME280;73829;53.826;-3.034;2023-11-21T06:58:48;102351.41;;;18.20;55.76
83815;BME280;73829;53.826;-3.034;2023-11-21T07:01:23;102348.30;;;18.18;55.89
83815;BME280;73829;53.826;-3.034;2023-11-21T07:03:54;102347.41;;;18.18;55.82
83815;BME280;73829;53.826;-3.034;2023-11-21T07:06:25;102348.50;;;18.16;55.89
83815;BME280;73829;53.826;-3.034;2023-11-21T07:08:56;102351.01;;;18.15;55.84
83815;BME280;73829;53.826;-3.034;2023-11-21T07:11:28;102359.47;;;18.14;55.89
83815;BME280;73829;53.826;-3.034;2023-11-21T07:13:59;102371.46;;;18.13;55.92
83815;BME280;73829;53.826;-3.034;2023-11-21T07:16:32;102376.42;;;18.12;55.98
83815;BME280;73829;53.826;-3.034;2023-11-21T07:19:04;102383.48;;;18.12;55.95
83815;BME280;73829;53.826;-3.034;2023-11-21T07:21:36;102385.42;;;18.11;55.95
83815;BME280;73829;53.826;-3.034;2023-11-21T07:24:08;102387.19;;;18.10;55.96
83815;BME280;73829;53.826;-3.034;2023-11-21T07:26:40;102395.88;;;18.08;55.96
83815;BME280;73829;53.826;-3.034;2023-11-21T07:29:12;102406.09;;;18.07;55.94
83815;BME280;73829;53.826;-3.034;2023-11-21T07:31:43;102407.53;;;18.06;56.03
83815;BME280;73829;53.826;-3.034;2023-11-21T07:34:14;102415.48;;;18.05;55.98
83815;BME280;73829;53.826;-3.034;2023-11-21T07:36:43;102425.86;;;18.05;56.01
83815;BME280;73829;53.826;-3.034;2023-11-21T07:39:14;102435.19;;;18.06;56.02
83815;BME280;73829;53.826;-3.034;2023-11-21T07:41:46;102438.72;;;18.04;56.09
83815;BME280;73829;53.826;-3.034;2023-11-21T07:44:18;102452.31;;;18.03;55.89
83815;BME280;73829;53.826;-3.034;2023-11-21T07:46:49;102460.09;;;18.02;55.94
83815;BME280;73829;53.826;-3.034;2023-11-21T07:49:20;102466.98;;;18.00;55.94
83815;BME280;73829;53.826;-3.034;2023-11-21T07:51:52;102467.50;;;18.00;56.05
83815;BME280;73829;53.826;-3.034;2023-11-21T07:54:23;102465.38;;;18.02;56.06
83815;BME280;73829;53.826;-3.034;2023-11-21T07:56:52;102461.79;;;18.05;55.98
83815;BME280;73829;53.826;-3.034;2023-11-21T07:59:23;102464.91;;;18.07;55.84
83815;BME280;73829;53.826;-3.034;2023-11-21T08:01:54;102473.18;;;18.08;55.91
83815;BME280;73829;53.826;-3.034;2023-11-21T08:04:25;102478.12;;;18.08;55.96
83815;BME280;73829;53.826;-3.034;2023-11-21T08:06:56;102473.19;;;18.07;55.91
83815;BME280;73829;53.826;-3.034;2023-11-21T08:09:26;102482.70;;;18.07;55.76
83815;BME280;73829;53.826;-3.034;2023-11-21T08:11:57;102491.31;;;18.09;55.87
83815;BME280;73829;53.826;-3.034;2023-11-21T08:14:30;102497.69;;;18.07;55.77
83815;BME280;73829;53.826;-3.034;2023-11-21T08:17:01;102506.16;;;18.06;55.69
83815;BME280;73829;53.826;-3.034;2023-11-21T08:19:33;102506.35;;;18.05;55.79
83815;BME280;73829;53.826;-3.034;2023-11-21T08:22:04;102509.02;;;18.04;55.71
83815;BME280;73829;53.826;-3.034;2023-11-21T08:24:37;102516.07;;;18.03;55.71
83815;BME280;73829;53.826;-3.034;2023-11-21T08:27:06;102515.58;;;18.02;55.78
83815;BME280;73829;53.826;-3.034;2023-11-21T08:29:37;102528.59;;;18.02;55.67
83815;BME280;73829;53.826;-3.034;2023-11-21T08:32:08;102541.83;;;18.00;55.69
83815;BME280;73829;53.826;-3.034;2023-11-21T08:34:40;102544.33;;;17.99;55.89
83815;BME280;73829;53.826;-3.034;2023-11-21T08:37:12;102550.66;;;17.98;55.87
83815;BME280;73829;53.826;-3.034;2023-11-21T08:39:45;102549.27;;;17.96;55.81
83815;BME280;73829;53.826;-3.034;2023-11-21T08:42:17;102559.48;;;17.97;55.93
83815;BME280;73829;53.826;-3.034;2023-11-21T08:44:48;102557.17;;;17.98;56.00
83815;BME280;73829;53.826;-3.034;2023-11-21T08:47:20;102558.02;;;18.00;56.12
83815;BME280;73829;53.826;-3.034;2023-11-21T08:49:54;102552.30;;;18.05;56.11
83815;BME280;73829;53.826;-3.034;2023-11-21T08:52:25;102552.05;;;18.11;56.11
83815;BME280;73829;53.826;-3.034;2023-11-21T08:54:55;102552.50;;;18.15;56.17
83815;BME280;73829;53.826;-3.034;2023-11-21T08:57:27;102547.69;;;18.19;56.03
83815;BME280;73829;53.826;-3.034;2023-11-21T08:59:58;102552.23;;;18.22;55.96
83815;BME280;73829;53.826;-3.034;2023-11-21T09:02:29;102549.19;;;18.24;56.07
83815;BME280;73829;53.826;-3.034;2023-11-21T09:04:59;102543.00;;;18.25;56.07
83815;BME280;73829;53.826;-3.034;2023-11-21T09:07:32;102550.71;;;18.28;56.03
83815;BME280;73829;53.826;-3.034;2023-11-21T09:10:03;102547.89;;;18.29;56.04
83815;BME280;73829;53.826;-3.034;2023-11-21T09:12:37;102548.93;;;18.29;56.06
83815;BME280;73829;53.826;-3.034;2023-11-21T09:15:09;102560.71;;;18.30;56.12
83815;BME280;73829;53.826;-3.034;2023-11-21T09:17:41;102567.05;;;18.31;55.88
83815;BME280;73829;53.826;-3.034;2023-11-21T09:20:13;102568.63;;;18.31;56.02
83815;BME280;73829;53.826;-3.034;2023-11-21T09:22:44;102568.29;;;18.31;56.15
83815;BME280;73829;53.826;-3.034;2023-11-21T09:25:16;102563.17;;;18.31;56.03
83815;BME280;73829;53.826;-3.034;2023-11-21T09:27:48;102569.88;;;18.31;56.06
83815;BME280;73829;53.826;-3.034;2023-11-21T09:30:19;102587.32;;;18.30;55.99
83815;BME280;73829;53.826;-3.034;2023-11-21T09:32:50;102592.27;;;18.30;55.96
83815;BME280;73829;53.826;-3.034;2023-11-21T09:35:21;102602.30;;;18.31;56.17
83815;BME280;73829;53.826;-3.034;2023-11-21T09:37:52;102622.39;;;18.31;56.09
83815;BME280;73829;53.826;-3.034;2023-11-21T09:40:22;102639.11;;;18.32;56.22
83815;BME280;73829;53.826;-3.034;2023-11-21T09:42:56;102637.48;;;18.34;56.06
83815;BME280;73829;53.826;-3.034;2023-11-21T09:45:29;102630.60;;;18.34;56.09
83815;BME280;73829;53.826;-3.034;2023-11-21T09:48:04;102627.40;;;18.37;56.12
83815;BME280;73829;53.826;-3.034;2023-11-21T09:50:37;102625.23;;;18.40;56.21
83815;BME280;73829;53.826;-3.034;2023-11-21T09:53:13;102619.54;;;18.43;56.45
83815;BME280;73829;53.826;-3.034;2023-11-21T09:55:46;102619.64;;;18.47;56.57
83815;BME280;73829;53.826;-3.034;2023-11-21T09:58:18;102626.47;;;18.50;56.81
83815;BME280;73829;53.826;-3.034;2023-11-21T10:00:53;102632.41;;;18.53;56.80
83815;BME280;73829;53.826;-3.034;2023-11-21T10:03:25;102632.92;;;18.55;57.07
83815;BME280;73829;53.826;-3.034;2023-11-21T10:05:57;102629.17;;;18.57;57.25
83815;BME280;73829;53.826;-3.034;2023-11-21T10:08:30;102622.11;;;18.59;57.35
83815;BME280;73829;53.826;-3.034;2023-11-21T10:11:03;102619.26;;;18.60;57.45
83815;BME280;73829;53.826;-3.034;2023-11-21T10:13:36;102622.06;;;18.61;57.42
83815;BME280;73829;53.826;-3.034;2023-11-21T10:16:08;102630.67;;;18.63;57.45
83815;BME280;73829;53.826;-3.034;2023-11-21T10:18:41;102638.92;;;18.65;57.36
83815;BME280;73829;53.826;-3.034;2023-11-21T10:21:16;102640.96;;;18.71;57.17
83815;BME280;73829;53.826;-3.034;2023-11-21T10:23:47;102637.35;;;18.77;56.93
83815;BME280;73829;53.826;-3.034;2023-11-21T10:26:19;102638.66;;;18.82;56.96
83815;BME280;73829;53.826;-3.034;2023-11-21T10:28:59;102643.52;;;18.86;57.02
83815;BME280;73829;53.826;-3.034;2023-11-21T10:31:31;102644.68;;;18.90;56.98
83815;BME280;73829;53.826;-3.034;2023-11-21T10:34:17;102649.23;;;18.92;56.88
83815;BME280;73829;53.826;-3.034;2023-11-21T10:36:48;102651.50;;;18.94;56.81
83815;BME280;73829;53.826;-3.034;2023-11-21T10:39:20;102661.75;;;18.92;56.49
83815;BME280;73829;53.826;-3.034;2023-11-21T10:41:53;102663.01;;;18.92;56.31
83815;BME280;73829;53.826;-3.034;2023-11-21T10:44:25;102661.80;;;18.89;56.39
83815;BME280;73829;53.826;-3.034;2023-11-21T10:46:54;102659.17;;;18.89;56.36
83815;BME280;73829;53.826;-3.034;2023-11-21T10:49:27;102662.16;;;18.90;56.43
83815;BME280;73829;53.826;-3.034;2023-11-21T10:51:59;102661.48;;;18.89;56.50
83815;BME280;73829;53.826;-3.034;2023-11-21T10:54:30;102661.48;;;18.87;56.48
83815;BME280;73829;53.826;-3.034;2023-11-21T10:57:01;102673.14;;;18.88;56.68
83815;BME280;73829;53.826;-3.034;2023-11-21T10:59:34;102680.90;;;18.86;56.68
83815;BME280;73829;53.826;-3.034;2023-11-21T11:02:15;102686.54;;;18.88;56.59
83815;BME280;73829;53.826;-3.034;2023-11-21T11:04:51;102686.81;;;18.91;56.64
83815;BME280;73829;53.826;-3.034;2023-11-21T11:07:24;102689.25;;;18.93;56.59
83815;BME280;73829;53.826;-3.034;2023-11-21T11:09:56;102691.50;;;18.96;56.70
83815;BME280;73829;53.826;-3.034;2023-11-21T11:12:29;102692.90;;;18.96;56.70
83815;BME280;73829;53.826;-3.034;2023-11-21T11:15:00;102688.48;;;18.96;56.61
83815;BME280;73829;53.826;-3.034;2023-11-21T11:17:32;102689.21;;;18.96;56.70
83815;BME280;73829;53.826;-3.034;2023-11-21T11:20:04;102692.77;;;18.95;56.65
83815;BME280;73829;53.826;-3.034;2023-11-21T11:22:44;102700.54;;;18.94;56.61
83815;BME280;73829;53.826;-3.034;2023-11-21T11:25:36;102699.30;;;18.94;56.57
83815;BME280;73829;53.826;-3.034;2023-11-21T11:28:14;102694.52;;;18.95;56.52
83815;BME280;73829;53.826;-3.034;2023-11-21T11:30:56;102689.05;;;18.95;56.45
83815;BME280;73829;53.826;-3.034;2023-11-21T11:33:39;102692.04;;;18.95;56.54
83815;BME280;73829;53.826;-3.034;2023-11-21T11:36:17;102688.15;;;18.96;56.43
83815;BME280;73829;53.826;-3.034;2023-11-21T11:38:53;102685.32;;;18.96;56.26
83815;BME280;73829;53.826;-3.034;2023-11-21T11:41:29;102688.67;;;18.96;56.29
83815;BME280;73829;53.826;-3.034;2023-11-21T11:44:02;102690.80;;;18.96;56.24
83815;BME280;73829;53.826;-3.034;2023-11-21T11:46:44;102698.68;;;18.99;56.19
83815;BME280;73829;53.826;-3.034;2023-11-21T11:49:28;102692.84;;;19.01;56.07
83815;BME280;73829;53.826;-3.034;2023-11-21T11:52:34;102691.40;;;19.02;55.99
83815;BME280;73829;53.826;-3.034;2023-11-21T11:55:07;102696.16;;;19.02;55.88
83815;BME280;73829;53.826;-3.034;2023-11-21T11:57:41;102703.95;;;19.01;56.03
83815;BME280;73829;53.826;-3.034;2023-11-21T12:00:20;102705.01;;;19.00;56.00
83815;BME280;73829;53.826;-3.034;2023-11-21T12:05:42;102691.42;;;19.01;55.80
83815;BME280;73829;53.826;-3.034;2023-11-21T12:08:17;102698.65;;;19.00;55.79
83815;BME280;73829;53.826;-3.034;2023-11-21T12:10:48;102715.05;;;19.00;55.96
83815;BME280;73829;53.826;-3.034;2023-11-21T12:13:22;102720.18;;;18.99;55.92
83815;BME280;73829;53.826;-3.034;2023-11-21T12:15:53;102720.95;;;18.97;56.05
83815;BME280;73829;53.826;-3.034;2023-11-21T12:18:25;102715.17;;;18.93;56.08
83815;BME280;73829;53.826;-3.034;2023-11-21T12:20:56;102709.59;;;18.90;56.00
83815;BME280;73829;53.826;-3.034;2023-11-21T12:23:28;102712.65;;;18.87;56.06
83815;BME280;73829;53.826;-3.034;2023-11-21T12:25:59;102716.05;;;18.84;56.42
83815;BME280;73829;53.826;-3.034;2023-11-21T12:28:30;102711.70;;;18.80;56.38
83815;BME280;73829;53.826;-3.034;2023-11-21T12:31:02;102707.45;;;18.81;56.52
83815;BME280;73829;53.826;-3.034;2023-11-21T12:33:33;102711.15;;;18.81;56.43
83815;BME280;73829;53.826;-3.034;2023-11-21T12:36:05;102713.48;;;18.79;56.55
83815;BME280;73829;53.826;-3.034;2023-11-21T12:38:40;102726.91;;;18.77;56.54
83815;BME280;73829;53.826;-3.034;2023-11-21T12:41:12;102730.64;;;18.76;56.60
83815;BME280;73829;53.826;-3.034;2023-11-21T12:43:43;102734.71;;;18.74;56.58
83815;BME280;73829;53.826;-3.034;2023-11-21T12:46:14;102733.87;;;18.71;56.58
83815;BME280;73829;53.826;-3.034;2023-11-21T12:48:46;102736.17;;;18.69;56.74
83815;BME280;73829;53.826;-3.034;2023-11-21T12:51:18;102734.80;;;18.67;56.92
83815;BME280;73829;53.826;-3.034;2023-11-21T12:53:49;102735.73;;;18.64;56.95
83815;BME280;73829;53.826;-3.034;2023-11-21T12:56:22;102739.27;;;18.62;57.15
83815;BME280;73829;53.826;-3.034;2023-11-21T12:58:55;102744.77;;;18.60;57.06
83815;BME280;73829;53.826;-3.034;2023-11-21T13:01:28;102752.20;;;18.59;57.10
83815;BME280;73829;53.826;-3.034;2023-11-21T13:04:00;102755.56;;;18.58;57.09
83815;BME280;73829;53.826;-3.034;2023-11-21T13:06:33;102773.53;;;18.59;57.23
83815;BME280;73829;53.826;-3.034;2023-11-21T13:09:08;102773.86;;;18.60;57.34